sensor_id;sensor_type;location;lat;lon;timestamp;P1;durP1;ratioP1;P2;durP2;ratioP2
15706;SDS011;7953;54.302;10.128;2022-11-15T00:02:17;51.97;;;30.53;;
15706;SDS011;7953;54.302;10.128;2022-11-15T00:05:02;47.00;;;28.27;;
15706;SDS011;7953;54.302;10.128;2022-11-15T00:07:29;48.23;;;29.03;;
15706;SDS011;7953;54.302;10.128;2022-11-15T00:09:56;49.13;;;30.23;;
15706;SDS011;7953;54.302;10.128;2022-11-15T00:12:24;51.57;;;29.77;;
15706;SDS011;7953;54.302;10.128;2022-11-15T00:14:53;48.37;;;28.30;;
15706;SDS011;7953;54.302;10.128;2022-11-15T00:17:20;44.97;;;27.37;;
15706;SDS011;7953;54.302;10.128;2022-11-15T00:19:50;46.53;;;28.30;;
15706;SDS011;7953;54.302;10.128;2022-11-15T00:22:17;43.63;;;28.23;;
15706;SDS011;7953;54.302;10.128;2022-11-15T00:24:44;51.40;;;30.53;;
15706;SDS011;7953;54.302;10.128;2022-11-15T00:27:11;47.43;;;28.90;;
15706;SDS011;7953;54.302;10.128;2022-11-15T00:29:40;53.00;;;31.47;;
15706;SDS011;7953;54.302;10.128;2022-11-15T00:32:08;51.80;;;31.60;;
15706;SDS011;7953;54.302;10.128;2022-11-15T00:34:42;51.20;;;32.93;;
15706;SDS011;7953;54.302;10.128;2022-11-15T00:37:29;51.10;;;30.73;;
15706;SDS011;7953;54.302;10.128;2022-11-15T00:40:37;49.87;;;31.33;;
15706;SDS011;7953;54.302;10.128;2022-11-15T00:43:04;53.87;;;31.27;;
15706;SDS011;7953;54.302;10.128;2022-11-15T00:45:32;51.90;;;30.37;;
15706;SDS011;7953;54.302;10.128;2022-11-15T00:47:59;46.97;;;28.33;;
15706;SDS011;7953;54.302;10.128;2022-11-15T00:50:26;46.47;;;29.67;;
15706;SDS011;7953;54.302;10.128;2022-11-15T00:52:53;49.03;;;30.00;;
15706;SDS011;7953;54.302;10.128;2022-11-15T00:55:20;49.60;;;29.87;;
15706;SDS011;7953;54.302;10.128;2022-11-15T00:57:47;47.00;;;29.70;;
15706;SDS011;7953;54.302;10.128;2022-11-15T01:00:14;52.17;;;29.90;;
15706;SDS011;7953;54.302;10.128;2022-11-15T01:02:42;46.80;;;28.10;;
15706;SDS011;7953;54.302;10.128;2022-11-15T01:05:09;45.90;;;29.17;;
15706;SDS011;7953;54.302;10.128;2022-11-15T01:07:36;47.47;;;28.50;;
15706;SDS011;7953;54.302;10.128;2022-11-15T01:10:03;51.20;;;30.00;;
15706;SDS011;7953;54.302;10.128;2022-11-15T01:12:31;48.73;;;30.33;;
15706;SDS011;7953;54.302;10.128;2022-11-15T01:14:58;50.60;;;30.40;;
15706;SDS011;7953;54.302;10.128;2022-11-15T01:17:25;47.40;;;30.93;;
15706;SDS011;7953;54.302;10.128;2022-11-15T01:19:53;42.77;;;27.87;;
15706;SDS011;7953;54.302;10.128;2022-11-15T01:22:20;50.13;;;30.23;;
15706;SDS011;7953;54.302;10.128;2022-11-15T01:24:48;49.83;;;29.73;;
15706;SDS011;7953;54.302;10.128;2022-11-15T01:27:16;47.53;;;29.13;;
15706;SDS011;7953;54.302;10.128;2022-11-15T01:29:45;52.87;;;29.73;;
15706;SDS011;7953;54.302;10.128;2022-11-15T01:32:12;44.10;;;28.13;;
15706;SDS011;7953;54.302;10.128;2022-11-15T01:34:39;47.23;;;28.70;;
15706;SDS011;7953;54.302;10.128;2022-11-15T01:37:07;46.67;;;29.13;;
15706;SDS011;7953;54.302;10.128;2022-11-15T01:39:34;46.10;;;29.77;;
15706;SDS011;7953;54.302;10.128;2022-11-15T01:42:01;50.33;;;29.50;;
15706;SDS011;7953;54.302;10.128;2022-11-15T01:44:31;46.27;;;29.00;;
15706;SDS011;7953;54.302;10.128;2022-11-15T01:47:06;46.13;;;29.87;;
15706;SDS011;7953;54.302;10.128;2022-11-15T01:49:37;47.93;;;28.63;;
15706;SDS011;7953;54.302;10.128;2022-11-15T01:52:09;45.80;;;29.97;;
15706;SDS011;7953;54.302;10.128;2022-11-15T01:54:39;43.67;;;27.47;;
15706;SDS011;7953;54.302;10.128;2022-11-15T01:57:07;46.43;;;29.13;;
15706;SDS011;7953;54.302;10.128;2022-11-15T01:59:36;49.73;;;28.17;;
15706;SDS011;7953;54.302;10.128;2022-11-15T02:02:03;44.40;;;27.93;;
15706;SDS011;7953;54.302;10.128;2022-11-15T02:04:31;46.13;;;29.23;;
15706;SDS011;7953;54.302;10.128;2022-11-15T02:07:00;40.37;;;25.63;;
15706;SDS011;7953;54.302;10.128;2022-11-15T02:09:30;43.10;;;28.10;;
15706;SDS011;7953;54.302;10.128;2022-11-15T02:11:57;40.10;;;27.67;;
15706;SDS011;7953;54.302;10.128;2022-11-15T02:14:25;44.80;;;28.30;;
15706;SDS011;7953;54.302;10.128;2022-11-15T02:16:54;44.00;;;28.27;;
15706;SDS011;7953;54.302;10.128;2022-11-15T02:19:32;43.30;;;28.00;;
15706;SDS011;7953;54.302;10.128;2022-11-15T02:22:26;45.83;;;27.60;;
15706;SDS011;7953;54.302;10.128;2022-11-15T02:25:05;42.00;;;26.70;;
15706;SDS011;7953;54.302;10.128;2022-11-15T02:28:00;42.43;;;26.00;;
15706;SDS011;7953;54.302;10.128;2022-11-15T02:30:42;42.93;;;28.07;;
15706;SDS011;7953;54.302;10.128;2022-11-15T02:33:18;43.37;;;27.57;;
15706;SDS011;7953;54.302;10.128;2022-11-15T02:35:57;41.27;;;27.23;;
15706;SDS011;7953;54.302;10.128;2022-11-15T02:38:28;41.97;;;27.13;;
15706;SDS011;7953;54.302;10.128;2022-11-15T02:40:59;41.67;;;26.40;;
15706;SDS011;7953;54.302;10.128;2022-11-15T02:43:29;41.97;;;27.80;;
15706;SDS011;7953;54.302;10.128;2022-11-15T02:49:46;40.53;;;27.40;;
15706;SDS011;7953;54.302;10.128;2022-11-15T02:52:15;41.80;;;26.53;;
15706;SDS011;7953;54.302;10.128;2022-11-15T02:54:43;39.77;;;27.30;;
15706;SDS011;7953;54.302;10.128;2022-11-15T02:57:21;44.23;;;28.03;;
15706;SDS011;7953;54.302;10.128;2022-11-15T03:00:00;40.00;;;27.53;;
15706;SDS011;7953;54.302;10.128;2022-11-15T03:02:35;39.97;;;25.93;;
15706;SDS011;7953;54.302;10.128;2022-11-15T03:05:31;43.70;;;29.13;;
15706;SDS011;7953;54.302;10.128;2022-11-15T03:08:39;40.80;;;26.40;;
15706;SDS011;7953;54.302;10.128;2022-11-15T03:11:37;45.23;;;27.97;;
15706;SDS011;7953;54.302;10.128;2022-11-15T03:14:19;41.33;;;26.20;;
15706;SDS011;7953;54.302;10.128;2022-11-15T03:16:51;43.03;;;27.77;;
15706;SDS011;7953;54.302;10.128;2022-11-15T03:19:29;42.23;;;28.97;;
15706;SDS011;7953;54.302;10.128;2022-11-15T03:22:00;47.80;;;28.57;;
15706;SDS011;7953;54.302;10.128;2022-11-15T03:24:33;39.40;;;27.30;;
15706;SDS011;7953;54.302;10.128;2022-11-15T03:27:02;45.73;;;27.77;;
15706;SDS011;7953;54.302;10.128;2022-11-15T03:29:32;45.20;;;28.10;;
15706;SDS011;7953;54.302;10.128;2022-11-15T03:32:02;45.10;;;28.40;;
15706;SDS011;7953;54.302;10.128;2022-11-15T03:34:35;42.67;;;28.33;;
15706;SDS011;7953;54.302;10.128;2022-11-15T03:37:05;45.83;;;27.40;;
15706;SDS011;7953;54.302;10.128;2022-11-15T03:39:33;36.37;;;26.53;;
15706;SDS011;7953;54.302;10.128;2022-11-15T03:42:04;39.33;;;27.87;;
15706;SDS011;7953;54.302;10.128;2022-11-15T03:44:41;49.07;;;27.80;;
15706;SDS011;7953;54.302;10.128;2022-11-15T03:47:13;40.00;;;24.90;;
15706;SDS011;7953;54.302;10.128;2022-11-15T03:49:51;40.20;;;26.33;;
15706;SDS011;7953;54.302;10.128;2022-11-15T03:52:21;45.13;;;27.20;;
15706;SDS011;7953;54.302;10.128;2022-11-15T03:54:49;39.13;;;26.93;;
15706;SDS011;7953;54.302;10.128;2022-11-15T03:57:18;42.60;;;26.93;;
15706;SDS011;7953;54.302;10.128;2022-11-15T03:59:45;38.87;;;25.37;;
15706;SDS011;7953;54.302;10.128;2022-11-15T04:02:12;40.90;;;26.47;;
15706;SDS011;7953;54.302;10.128;2022-11-15T04:04:39;47.67;;;27.87;;
15706;SDS011;7953;54.302;10.128;2022-11-15T04:07:08;44.33;;;27.83;;
15706;SDS011;7953;54.302;10.128;2022-11-15T04:09:34;40.50;;;26.30;;
15706;SDS011;7953;54.302;10.128;2022-11-15T04:12:22;39.87;;;26.70;;
15706;SDS011;7953;54.302;10.128;2022-11-15T04:14:55;43.13;;;25.17;;
15706;SDS011;7953;54.302;10.128;2022-11-15T04:17:33;46.50;;;27.90;;
15706;SDS011;7953;54.302;10.128;2022-11-15T04:20:05;38.37;;;26.27;;
15706;SDS011;7953;54.302;10.128;2022-11-15T04:22:54;43.47;;;27.17;;
15706;SDS011;7953;54.302;10.128;2022-11-15T04:25:40;43.30;;;27.37;;
15706;SDS011;7953;54.302;10.128;2022-11-15T04:28:08;43.43;;;28.37;;
15706;SDS011;7953;54.302;10.128;2022-11-15T04:30:35;40.33;;;26.20;;
15706;SDS011;7953;54.302;10.128;2022-11-15T04:33:02;41.47;;;27.00;;
15706;SDS011;7953;54.302;10.128;2022-11-15T04:35:29;43.67;;;27.27;;
15706;SDS011;7953;54.302;10.128;2022-11-15T04:37:58;43.03;;;27.53;;
15706;SDS011;7953;54.302;10.128;2022-11-15T04:40:24;38.83;;;26.97;;
15706;SDS011;7953;54.302;10.128;2022-11-15T04:42:51;41.50;;;27.23;;
15706;SDS011;7953;54.302;10.128;2022-11-15T04:45:18;42.63;;;26.27;;
15706;SDS011;7953;54.302;10.128;2022-11-15T04:47:45;42.77;;;26.97;;
15706;SDS011;7953;54.302;10.128;2022-11-15T04:50:13;38.07;;;25.60;;
15706;SDS011;7953;54.302;10.128;2022-11-15T04:52:40;44.10;;;28.53;;
15706;SDS011;7953;54.302;10.128;2022-11-15T04:55:10;39.57;;;26.87;;
15706;SDS011;7953;54.302;10.128;2022-11-15T04:57:37;40.77;;;27.30;;
15706;SDS011;7953;54.302;10.128;2022-11-15T05:00:05;41.83;;;27.33;;
15706;SDS011;7953;54.302;10.128;2022-11-15T05:02:59;39.37;;;26.20;;
15706;SDS011;7953;54.302;10.128;2022-11-15T05:06:04;42.97;;;26.03;;
15706;SDS011;7953;54.302;10.128;2022-11-15T05:08:31;44.53;;;26.77;;
15706;SDS011;7953;54.302;10.128;2022-11-15T05:11:00;48.03;;;29.87;;
15706;SDS011;7953;54.302;10.128;2022-11-15T05:13:27;45.73;;;28.93;;
15706;SDS011;7953;54.302;10.128;2022-11-15T05:15:53;45.13;;;29.80;;
15706;SDS011;7953;54.302;10.128;2022-11-15T05:18:20;47.40;;;30.07;;
15706;SDS011;7953;54.302;10.128;2022-11-15T05:20:47;43.80;;;29.60;;
15706;SDS011;7953;54.302;10.128;2022-11-15T05:23:14;42.43;;;28.73;;
15706;SDS011;7953;54.302;10.128;2022-11-15T05:25:41;44.50;;;27.70;;
15706;SDS011;7953;54.302;10.128;2022-11-15T05:28:09;44.77;;;30.13;;
15706;SDS011;7953;54.302;10.128;2022-11-15T05:30:36;44.80;;;28.90;;
15706;SDS011;7953;54.302;10.128;2022-11-15T05:33:03;42.87;;;27.33;;
15706;SDS011;7953;54.302;10.128;2022-11-15T05:35:30;41.20;;;27.30;;
15706;SDS011;7953;54.302;10.128;2022-11-15T05:38:01;40.97;;;26.13;;
15706;SDS011;7953;54.302;10.128;2022-11-15T05:40:29;44.40;;;27.77;;
15706;SDS011;7953;54.302;10.128;2022-11-15T05:42:57;41.53;;;27.20;;
15706;SDS011;7953;54.302;10.128;2022-11-15T05:45:28;44.50;;;28.20;;
15706;SDS011;7953;54.302;10.128;2022-11-15T05:47:56;45.20;;;29.13;;
15706;SDS011;7953;54.302;10.128;2022-11-15T05:50:24;42.53;;;27.50;;
15706;SDS011;7953;54.302;10.128;2022-11-15T05:52:52;45.43;;;26.80;;
15706;SDS011;7953;54.302;10.128;2022-11-15T05:55:21;43.30;;;27.87;;
15706;SDS011;7953;54.302;10.128;2022-11-15T05:57:48;41.17;;;27.60;;
15706;SDS011;7953;54.302;10.128;2022-11-15T06:00:15;43.70;;;26.67;;
15706;SDS011;7953;54.302;10.128;2022-11-15T06:02:44;43.43;;;27.50;;
15706;SDS011;7953;54.302;10.128;2022-11-15T06:05:10;40.43;;;25.77;;
15706;SDS011;7953;54.302;10.128;2022-11-15T06:07:37;40.47;;;25.90;;
15706;SDS011;7953;54.302;10.128;2022-11-15T06:10:05;41.87;;;26.33;;
15706;SDS011;7953;54.302;10.128;2022-11-15T06:12:32;40.73;;;27.87;;
15706;SDS011;7953;54.302;10.128;2022-11-15T06:14:59;46.33;;;29.07;;
15706;SDS011;7953;54.302;10.128;2022-11-15T06:17:26;41.83;;;28.00;;
15706;SDS011;7953;54.302;10.128;2022-11-15T06:19:54;42.97;;;26.87;;
15706;SDS011;7953;54.302;10.128;2022-11-15T06:22:21;43.17;;;27.17;;
15706;SDS011;7953;54.302;10.128;2022-11-15T06:24:48;46.63;;;29.17;;
15706;SDS011;7953;54.302;10.128;2022-11-15T06:27:15;45.13;;;28.07;;
15706;SDS011;7953;54.302;10.128;2022-11-15T06:29:42;47.70;;;27.57;;
15706;SDS011;7953;54.302;10.128;2022-11-15T06:32:08;45.30;;;27.33;;
15706;SDS011;7953;54.302;10.128;2022-11-15T06:34:36;41.37;;;25.93;;
15706;SDS011;7953;54.302;10.128;2022-11-15T06:37:04;44.93;;;28.33;;
15706;SDS011;7953;54.302;10.128;2022-11-15T06:39:31;41.20;;;27.00;;
15706;SDS011;7953;54.302;10.128;2022-11-15T06:41:57;40.90;;;26.13;;
15706;SDS011;7953;54.302;10.128;2022-11-15T06:44:25;40.07;;;25.80;;
15706;SDS011;7953;54.302;10.128;2022-11-15T06:46:52;40.60;;;25.60;;
15706;SDS011;7953;54.302;10.128;2022-11-15T06:49:18;38.93;;;25.00;;
15706;SDS011;7953;54.302;10.128;2022-11-15T06:51:45;41.03;;;25.67;;
15706;SDS011;7953;54.302;10.128;2022-11-15T06:54:13;36.33;;;25.57;;
15706;SDS011;7953;54.302;10.128;2022-11-15T06:56:40;41.10;;;25.63;;
15706;SDS011;7953;54.302;10.128;2022-11-15T06:59:07;37.30;;;24.77;;
15706;SDS011;7953;54.302;10.128;2022-11-15T07:01:34;40.57;;;25.57;;
15706;SDS011;7953;54.302;10.128;2022-11-15T07:04:01;38.70;;;25.43;;
15706;SDS011;7953;54.302;10.128;2022-11-15T07:06:28;41.97;;;25.80;;
15706;SDS011;7953;54.302;10.128;2022-11-15T07:08:55;39.40;;;26.00;;
15706;SDS011;7953;54.302;10.128;2022-11-15T07:11:23;40.07;;;25.77;;
15706;SDS011;7953;54.302;10.128;2022-11-15T07:13:50;40.67;;;24.70;;
15706;SDS011;7953;54.302;10.128;2022-11-15T07:16:17;38.17;;;25.67;;
15706;SDS011;7953;54.302;10.128;2022-11-15T07:18:44;41.27;;;26.10;;
15706;SDS011;7953;54.302;10.128;2022-11-15T07:21:11;38.17;;;25.47;;
15706;SDS011;7953;54.302;10.128;2022-11-15T07:23:38;37.73;;;23.93;;
15706;SDS011;7953;54.302;10.128;2022-11-15T07:26:05;37.67;;;25.50;;
15706;SDS011;7953;54.302;10.128;2022-11-15T07:28:34;38.33;;;25.30;;
15706;SDS011;7953;54.302;10.128;2022-11-15T07:31:02;40.17;;;26.30;;
15706;SDS011;7953;54.302;10.128;2022-11-15T07:33:30;37.70;;;24.00;;
15706;SDS011;7953;54.302;10.128;2022-11-15T07:35:58;38.00;;;25.50;;
15706;SDS011;7953;54.302;10.128;2022-11-15T07:38:26;41.60;;;26.33;;
15706;SDS011;7953;54.302;10.128;2022-11-15T07:40:55;37.10;;;25.00;;
15706;SDS011;7953;54.302;10.128;2022-11-15T07:43:23;33.23;;;23.53;;
15706;SDS011;7953;54.302;10.128;2022-11-15T07:45:52;34.50;;;23.40;;
15706;SDS011;7953;54.302;10.128;2022-11-15T07:48:19;38.53;;;27.23;;
15706;SDS011;7953;54.302;10.128;2022-11-15T07:50:46;40.33;;;28.03;;
15706;SDS011;7953;54.302;10.128;2022-11-15T07:53:13;101.20;;;69.07;;
15706;SDS011;7953;54.302;10.128;2022-11-15T07:55:40;51.43;;;33.37;;
15706;SDS011;7953;54.302;10.128;2022-11-15T07:58:09;38.03;;;26.93;;
15706;SDS011;7953;54.302;10.128;2022-11-15T08:00:36;36.77;;;25.30;;
15706;SDS011;7953;54.302;10.128;2022-11-15T08:03:06;33.83;;;23.50;;
15706;SDS011;7953;54.302;10.128;2022-11-15T08:05:34;43.37;;;32.07;;
15706;SDS011;7953;54.302;10.128;2022-11-15T08:08:02;35.57;;;23.83;;
15706;SDS011;7953;54.302;10.128;2022-11-15T08:10:29;35.33;;;22.87;;
15706;SDS011;7953;54.302;10.128;2022-11-15T08:12:57;33.57;;;23.37;;
15706;SDS011;7953;54.302;10.128;2022-11-15T08:15:24;35.67;;;23.80;;
15706;SDS011;7953;54.302;10.128;2022-11-15T08:17:55;31.50;;;21.80;;
15706;SDS011;7953;54.302;10.128;2022-11-15T08:20:24;33.07;;;23.63;;
15706;SDS011;7953;54.302;10.128;2022-11-15T08:22:54;34.53;;;23.40;;
15706;SDS011;7953;54.302;10.128;2022-11-15T08:25:23;31.93;;;23.00;;
15706;SDS011;7953;54.302;10.128;2022-11-15T08:27:51;32.47;;;23.03;;
15706;SDS011;7953;54.302;10.128;2022-11-15T08:30:19;34.83;;;23.27;;
15706;SDS011;7953;54.302;10.128;2022-11-15T08:32:46;32.37;;;24.47;;
15706;SDS011;7953;54.302;10.128;2022-11-15T08:35:13;30.43;;;21.97;;
15706;SDS011;7953;54.302;10.128;2022-11-15T08:37:41;42.10;;;30.80;;
15706;SDS011;7953;54.302;10.128;2022-11-15T08:40:08;41.50;;;31.50;;
15706;SDS011;7953;54.302;10.128;2022-11-15T08:42:36;31.70;;;23.60;;
15706;SDS011;7953;54.302;10.128;2022-11-15T08:45:03;32.00;;;21.00;;
15706;SDS011;7953;54.302;10.128;2022-11-15T08:47:31;29.90;;;21.43;;
15706;SDS011;7953;54.302;10.128;2022-11-15T08:49:57;28.93;;;20.30;;
15706;SDS011;7953;54.302;10.128;2022-11-15T08:52:24;28.20;;;19.97;;
15706;SDS011;7953;54.302;10.128;2022-11-15T08:54:53;26.40;;;20.40;;
15706;SDS011;7953;54.302;10.128;2022-11-15T08:57:20;28.97;;;20.10;;
15706;SDS011;7953;54.302;10.128;2022-11-15T08:59:47;27.97;;;20.47;;
15706;SDS011;7953;54.302;10.128;2022-11-15T09:02:14;26.03;;;19.33;;
15706;SDS011;7953;54.302;10.128;2022-11-15T09:04:41;30.43;;;22.73;;
15706;SDS011;7953;54.302;10.128;2022-11-15T09:07:09;26.53;;;19.87;;
15706;SDS011;7953;54.302;10.128;2022-11-15T09:09:37;25.37;;;18.33;;
15706;SDS011;7953;54.302;10.128;2022-11-15T09:12:05;27.97;;;20.83;;
15706;SDS011;7953;54.302;10.128;2022-11-15T09:14:33;29.47;;;20.53;;
15706;SDS011;7953;54.302;10.128;2022-11-15T09:17:00;27.73;;;20.60;;
15706;SDS011;7953;54.302;10.128;2022-11-15T09:19:28;22.93;;;17.23;;
15706;SDS011;7953;54.302;10.128;2022-11-15T09:21:56;23.20;;;17.37;;
15706;SDS011;7953;54.302;10.128;2022-11-15T09:24:23;23.97;;;17.87;;
15706;SDS011;7953;54.302;10.128;2022-11-15T09:26:50;32.90;;;25.93;;
15706;SDS011;7953;54.302;10.128;2022-11-15T09:29:19;34.53;;;23.70;;
15706;SDS011;7953;54.302;10.128;2022-11-15T09:31:46;29.53;;;20.73;;
15706;SDS011;7953;54.302;10.128;2022-11-15T09:34:13;26.97;;;19.50;;
15706;SDS011;7953;54.302;10.128;2022-11-15T09:36:39;28.70;;;20.17;;
15706;SDS011;7953;54.302;10.128;2022-11-15T09:39:06;27.43;;;18.80;;
15706;SDS011;7953;54.302;10.128;2022-11-15T09:41:38;25.50;;;19.50;;
15706;SDS011;7953;54.302;10.128;2022-11-15T09:44:27;25.73;;;20.83;;
15706;SDS011;7953;54.302;10.128;2022-11-15T09:47:07;26.70;;;20.03;;
15706;SDS011;7953;54.302;10.128;2022-11-15T09:49:50;27.10;;;18.27;;
15706;SDS011;7953;54.302;10.128;2022-11-15T09:52:18;24.70;;;18.23;;
15706;SDS011;7953;54.302;10.128;2022-11-15T09:54:47;28.77;;;19.03;;
15706;SDS011;7953;54.302;10.128;2022-11-15T09:57:16;24.73;;;18.57;;
15706;SDS011;7953;54.302;10.128;2022-11-15T09:59:58;28.37;;;20.30;;
15706;SDS011;7953;54.302;10.128;2022-11-15T10:02:35;23.77;;;17.67;;
15706;SDS011;7953;54.302;10.128;2022-11-15T10:05:14;29.60;;;19.47;;
15706;SDS011;7953;54.302;10.128;2022-11-15T10:07:46;27.47;;;19.47;;
15706;SDS011;7953;54.302;10.128;2022-11-15T10:10:20;25.90;;;19.27;;
15706;SDS011;7953;54.302;10.128;2022-11-15T10:12:51;34.17;;;24.57;;
15706;SDS011;7953;54.302;10.128;2022-11-15T10:15:21;26.30;;;20.90;;
15706;SDS011;7953;54.302;10.128;2022-11-15T10:20:50;27.37;;;20.93;;
15706;SDS011;7953;54.302;10.128;2022-11-15T10:23:22;29.60;;;23.57;;
15706;SDS011;7953;54.302;10.128;2022-11-15T10:25:50;26.17;;;20.47;;
15706;SDS011;7953;54.302;10.128;2022-11-15T10:28:21;22.83;;;17.83;;
15706;SDS011;7953;54.302;10.128;2022-11-15T10:30:54;25.87;;;18.83;;
15706;SDS011;7953;54.302;10.128;2022-11-15T10:33:26;24.17;;;16.90;;
15706;SDS011;7953;54.302;10.128;2022-11-15T10:36:16;26.33;;;20.10;;
15706;SDS011;7953;54.302;10.128;2022-11-15T10:38:52;22.23;;;16.27;;
15706;SDS011;7953;54.302;10.128;2022-11-15T10:41:29;22.77;;;18.97;;
15706;SDS011;7953;54.302;10.128;2022-11-15T10:44:19;26.47;;;18.57;;
15706;SDS011;7953;54.302;10.128;2022-11-15T10:47:03;27.43;;;19.10;;
15706;SDS011;7953;54.302;10.128;2022-11-15T10:49:34;33.53;;;23.43;;
15706;SDS011;7953;54.302;10.128;2022-11-15T10:52:02;32.90;;;27.43;;
15706;SDS011;7953;54.302;10.128;2022-11-15T10:54:39;28.83;;;25.23;;
15706;SDS011;7953;54.302;10.128;2022-11-15T10:57:10;25.10;;;19.20;;
15706;SDS011;7953;54.302;10.128;2022-11-15T10:59:42;25.47;;;19.00;;
15706;SDS011;7953;54.302;10.128;2022-11-15T11:02:25;21.60;;;16.37;;
15706;SDS011;7953;54.302;10.128;2022-11-15T11:04:55;21.53;;;17.57;;
15706;SDS011;7953;54.302;10.128;2022-11-15T11:07:23;23.10;;;17.90;;
15706;SDS011;7953;54.302;10.128;2022-11-15T11:09:56;24.83;;;17.90;;
15706;SDS011;7953;54.302;10.128;2022-11-15T11:12:28;21.70;;;16.70;;
15706;SDS011;7953;54.302;10.128;2022-11-15T11:14:57;19.17;;;15.30;;
15706;SDS011;7953;54.302;10.128;2022-11-15T11:17:29;22.07;;;17.20;;
15706;SDS011;7953;54.302;10.128;2022-11-15T11:20:07;16.30;;;14.37;;
15706;SDS011;7953;54.302;10.128;2022-11-15T11:22:41;22.57;;;16.63;;
15706;SDS011;7953;54.302;10.128;2022-11-15T11:25:28;18.83;;;15.20;;
15706;SDS011;7953;54.302;10.128;2022-11-15T11:28:11;25.53;;;16.97;;
15706;SDS011;7953;54.302;10.128;2022-11-15T11:30:51;22.70;;;15.57;;
15706;SDS011;7953;54.302;10.128;2022-11-15T11:33:29;27.03;;;16.50;;
15706;SDS011;7953;54.302;10.128;2022-11-15T11:36:02;22.00;;;16.73;;
15706;SDS011;7953;54.302;10.128;2022-11-15T11:38:49;21.03;;;15.67;;
15706;SDS011;7953;54.302;10.128;2022-11-15T11:41:25;22.00;;;16.73;;
15706;SDS011;7953;54.302;10.128;2022-11-15T11:44:07;18.90;;;14.57;;
15706;SDS011;7953;54.302;10.128;2022-11-15T11:46:47;23.20;;;16.57;;
15706;SDS011;7953;54.302;10.128;2022-11-15T11:49:20;26.87;;;16.87;;
15706;SDS011;7953;54.302;10.128;2022-11-15T11:51:52;24.30;;;17.20;;
15706;SDS011;7953;54.302;10.128;2022-11-15T11:54:25;25.20;;;16.87;;
15706;SDS011;7953;54.302;10.128;2022-11-15T11:56:58;27.97;;;16.37;;
15706;SDS011;7953;54.302;10.128;2022-11-15T11:59:29;22.50;;;15.30;;
15706;SDS011;7953;54.302;10.128;2022-11-15T12:02:02;22.67;;;16.13;;
15706;SDS011;7953;54.302;10.128;2022-11-15T12:04:42;27.10;;;20.57;;
15706;SDS011;7953;54.302;10.128;2022-11-15T12:07:13;25.77;;;18.97;;
15706;SDS011;7953;54.302;10.128;2022-11-15T12:09:46;22.57;;;15.83;;
15706;SDS011;7953;54.302;10.128;2022-11-15T12:12:21;20.07;;;15.77;;
15706;SDS011;7953;54.302;10.128;2022-11-15T12:14:55;20.77;;;16.40;;
15706;SDS011;7953;54.302;10.128;2022-11-15T12:17:25;18.87;;;15.47;;
15706;SDS011;7953;54.302;10.128;2022-11-15T12:19:58;19.50;;;14.50;;
15706;SDS011;7953;54.302;10.128;2022-11-15T12:22:31;21.87;;;16.37;;
15706;SDS011;7953;54.302;10.128;2022-11-15T12:25:05;17.43;;;15.03;;
15706;SDS011;7953;54.302;10.128;2022-11-15T12:27:40;21.67;;;15.53;;
15706;SDS011;7953;54.302;10.128;2022-11-15T12:30:11;21.63;;;15.93;;
15706;SDS011;7953;54.302;10.128;2022-11-15T12:32:48;19.87;;;15.63;;
15706;SDS011;7953;54.302;10.128;2022-11-15T12:35:23;22.63;;;15.07;;
15706;SDS011;7953;54.302;10.128;2022-11-15T12:37:53;21.13;;;15.60;;
15706;SDS011;7953;54.302;10.128;2022-11-15T12:40:27;19.60;;;14.87;;
15706;SDS011;7953;54.302;10.128;2022-11-15T12:46:04;18.43;;;14.33;;
15706;SDS011;7953;54.302;10.128;2022-11-15T12:57:30;18.50;;;15.00;;
15706;SDS011;7953;54.302;10.128;2022-11-15T13:03:23;17.70;;;14.23;;
15706;SDS011;7953;54.302;10.128;2022-11-15T13:06:05;20.13;;;14.60;;
15706;SDS011;7953;54.302;10.128;2022-11-15T13:08:59;17.90;;;14.43;;
15706;SDS011;7953;54.302;10.128;2022-11-15T13:11:47;19.00;;;14.77;;
15706;SDS011;7953;54.302;10.128;2022-11-15T13:17:21;18.67;;;14.20;;
15706;SDS011;7953;54.302;10.128;2022-11-15T13:19:52;18.53;;;15.20;;
15706;SDS011;7953;54.302;10.128;2022-11-15T13:22:24;19.93;;;14.27;;
15706;SDS011;7953;54.302;10.128;2022-11-15T13:25:15;20.03;;;14.93;;
15706;SDS011;7953;54.302;10.128;2022-11-15T13:27:46;18.93;;;14.77;;
15706;SDS011;7953;54.302;10.128;2022-11-15T13:30:16;18.70;;;14.30;;
15706;SDS011;7953;54.302;10.128;2022-11-15T13:32:46;17.73;;;13.70;;
15706;SDS011;7953;54.302;10.128;2022-11-15T13:35:18;18.73;;;15.23;;
15706;SDS011;7953;54.302;10.128;2022-11-15T13:37:47;18.90;;;14.60;;
15706;SDS011;7953;54.302;10.128;2022-11-15T13:40:21;21.13;;;15.60;;
15706;SDS011;7953;54.302;10.128;2022-11-15T13:42:53;19.93;;;15.80;;
15706;SDS011;7953;54.302;10.128;2022-11-15T13:45:21;16.67;;;13.87;;
15706;SDS011;7953;54.302;10.128;2022-11-15T13:47:53;18.73;;;13.77;;
15706;SDS011;7953;54.302;10.128;2022-11-15T13:50:23;18.73;;;14.43;;
15706;SDS011;7953;54.302;10.128;2022-11-15T13:52:53;16.73;;;14.13;;
15706;SDS011;7953;54.302;10.128;2022-11-15T13:55:22;20.67;;;13.73;;
15706;SDS011;7953;54.302;10.128;2022-11-15T13:57:51;14.67;;;12.80;;
15706;SDS011;7953;54.302;10.128;2022-11-15T14:03:12;18.20;;;14.03;;
15706;SDS011;7953;54.302;10.128;2022-11-15T14:05:44;18.60;;;15.07;;
15706;SDS011;7953;54.302;10.128;2022-11-15T14:08:21;19.50;;;13.80;;
15706;SDS011;7953;54.302;10.128;2022-11-15T14:11:05;15.93;;;13.37;;
15706;SDS011;7953;54.302;10.128;2022-11-15T14:13:40;17.77;;;12.30;;
15706;SDS011;7953;54.302;10.128;2022-11-15T14:16:13;15.93;;;13.57;;
15706;SDS011;7953;54.302;10.128;2022-11-15T14:18:43;16.00;;;11.90;;
15706;SDS011;7953;54.302;10.128;2022-11-15T14:21:12;16.07;;;12.73;;
15706;SDS011;7953;54.302;10.128;2022-11-15T14:23:39;15.97;;;11.77;;
15706;SDS011;7953;54.302;10.128;2022-11-15T14:26:10;15.63;;;12.30;;
15706;SDS011;7953;54.302;10.128;2022-11-15T14:28:53;15.90;;;12.90;;
15706;SDS011;7953;54.302;10.128;2022-11-15T14:31:20;17.63;;;13.63;;
15706;SDS011;7953;54.302;10.128;2022-11-15T14:33:48;17.83;;;13.00;;
15706;SDS011;7953;54.302;10.128;2022-11-15T14:36:15;18.73;;;13.63;;
15706;SDS011;7953;54.302;10.128;2022-11-15T14:38:43;16.37;;;12.10;;
15706;SDS011;7953;54.302;10.128;2022-11-15T14:41:16;15.60;;;12.63;;
15706;SDS011;7953;54.302;10.128;2022-11-15T14:43:46;14.83;;;12.50;;
15706;SDS011;7953;54.302;10.128;2022-11-15T14:46:14;19.50;;;15.43;;
15706;SDS011;7953;54.302;10.128;2022-11-15T14:48:41;17.73;;;12.17;;
15706;SDS011;7953;54.302;10.128;2022-11-15T14:51:11;17.57;;;12.07;;
15706;SDS011;7953;54.302;10.128;2022-11-15T14:53:39;14.40;;;12.60;;
15706;SDS011;7953;54.302;10.128;2022-11-15T14:56:07;14.37;;;12.40;;
15706;SDS011;7953;54.302;10.128;2022-11-15T14:58:34;17.33;;;13.00;;
15706;SDS011;7953;54.302;10.128;2022-11-15T15:01:01;13.57;;;11.37;;
15706;SDS011;7953;54.302;10.128;2022-11-15T15:03:30;16.97;;;12.57;;
15706;SDS011;7953;54.302;10.128;2022-11-15T15:05:57;14.67;;;11.53;;
15706;SDS011;7953;54.302;10.128;2022-11-15T15:08:24;15.47;;;13.00;;
15706;SDS011;7953;54.302;10.128;2022-11-15T15:10:50;14.73;;;11.20;;
15706;SDS011;7953;54.302;10.128;2022-11-15T15:13:18;15.73;;;11.10;;